Time;durP1;ratioP1;P1;durP2;ratioP2;P2;SDS_P1;SDS_P2;PMS_P1;PMS_P2;Temp;Humidity;BMP_temperature;BMP_pressure;BME280_temperature;BME280_humidity;BME280_pressure;Samples;Min_cycle;Max_cycle;Signal;HPM_P1;HPM_P2
2022/09/23 00:00:45;;;;;;;19.08;17.98;;;;;;;;;;10145626;28;20053;-71
2022/09/23 00:05:42;;;;;;;19.48;18.23;;;;;;;;;;10136653;28;20050;-71
2022/09/23 00:10:38;;;;;;;18.02;16.83;;;;;;;;;;10151120;28;20049;-71
2022/09/23 00:15:37;;;;;;;19.85;18.65;;;;;;;;;;10148243;28;20093;-71
2022/09/23 00:20:34;;;;;;;20.23;19.02;;;;;;;;;;10147293;28;20057;-71
2022/09/23 00:25:30;;;;;;;20.23;18.92;;;;;;;;;;10145078;28;20042;-71
2022/09/23 00:30:27;;;;;;;20.17;19.08;;;;;;;;;;10149632;28;20481;-71
2022/09/23 00:35:23;;;;;;;17.27;16.27;;;;;;;;;;10142916;28;20100;-69
2022/09/23 00:40:19;;;;;;;20.40;18.90;;;;;;;;;;10149451;28;20724;-70
2022/09/23 00:45:16;;;;;;;19.55;18.45;;;;;;;;;;10149621;28;20046;-70
2022/09/23 00:50:19;;;;;;;19.35;18.15;;;;;;;;;;10152090;28;20092;-70
2022/09/23 00:55:16;;;;;;;18.27;16.98;;;;;;;;;;10160518;28;20050;-70
2022/09/23 01:00:13;;;;;;;17.88;16.83;;;;;;;;;;10147908;28;20046;-70
2022/09/23 01:05:09;;;;;;;21.00;19.60;;;;;;;;;;10139381;28;20494;-70
2022/09/23 01:10:06;;;;;;;17.95;16.85;;;;;;;;;;10145739;28;20051;-70
2022/09/23 01:15:03;;;;;;;19.65;18.15;;;;;;;;;;10142947;28;20084;-69
2022/09/23 01:20:18;;;;;;;17.23;16.02;;;;;;;;;;10141661;28;20054;-70
2022/09/23 01:25:32;;;;;;;18.73;17.42;;;;;;;;;;10143219;28;20059;-70
2022/09/23 01:30:28;;;;;;;17.98;16.70;;;;;;;;;;10151932;28;20042;-70
2022/09/23 01:35:34;;;;;;;17.83;16.83;;;;;;;;;;10138761;28;20120;-70
2022/09/23 01:40:33;;;;;;;18.35;17.25;;;;;;;;;;10144627;28;20065;-70
2022/09/23 01:45:35;;;;;;;17.80;16.80;;;;;;;;;;10146323;28;20064;-70
2022/09/23 01:55:59;;;;;;;19.85;18.75;;;;;;;;;;10136814;28;20043;-70
2022/09/23 02:00:59;;;;;;;18.73;17.52;;;;;;;;;;10140847;28;20523;-70
2022/09/23 02:06:04;;;;;;;17.52;16.33;;;;;;;;;;10146599;28;20063;-70
2022/09/23 02:11:09;;;;;;;17.70;16.50;;;;;;;;;;10145512;28;20422;-70
2022/09/23 02:16:10;;;;;;;18.27;17.08;;;;;;;;;;10152066;28;20050;-70
2022/09/23 02:21:08;;;;;;;18.05;16.95;;;;;;;;;;10149795;28;20058;-70
2022/09/23 02:26:07;;;;;;;17.83;16.83;;;;;;;;;;10147528;28;20050;-70
2022/09/23 02:31:07;;;;;;;18.55;17.33;;;;;;;;;;10154219;28;20042;-70
2022/09/23 02:36:14;;;;;;;15.65;14.75;;;;;;;;;;10146679;28;20042;-70
2022/09/23 02:41:21;;;;;;;16.75;15.65;;;;;;;;;;10154093;28;20058;-70
2022/09/23 02:46:19;;;;;;;15.88;14.88;;;;;;;;;;10151877;28;20055;-70
2022/09/23 02:51:15;;;;;;;16.55;15.55;;;;;;;;;;10147577;28;20054;-70
2022/09/23 02:56:13;;;;;;;18.13;16.75;;;;;;;;;;10143805;28;20417;-70
2022/09/23 03:01:25;;;;;;;16.23;15.23;;;;;;;;;;10175587;28;20050;-70
2022/09/23 03:06:36;;;;;;;17.60;16.60;;;;;;;;;;10152890;28;20575;-70
2022/09/23 03:11:35;;;;;;;18.30;17.20;;;;;;;;;;10147085;28;20066;-70
2022/09/23 03:16:42;;;;;;;18.67;17.58;;;;;;;;;;10148757;28;20064;-70
2022/09/23 03:21:42;;;;;;;19.05;17.80;;;;;;;;;;10145088;28;20057;-70
2022/09/23 03:26:39;;;;;;;20.38;18.85;;;;;;;;;;10141346;28;20046;-70
2022/09/23 03:31:37;;;;;;;21.15;19.75;;;;;;;;;;10150225;28;20047;-70
2022/09/23 03:36:50;;;;;;;20.15;18.70;;;;;;;;;;10149847;28;20118;-70
2022/09/23 03:41:49;;;;;;;19.13;17.92;;;;;;;;;;10130970;28;20070;-70
2022/09/23 03:46:48;;;;;;;19.60;18.20;;;;;;;;;;10142599;28;20411;-70
2022/09/23 03:51:45;;;;;;;20.10;18.85;;;;;;;;;;10145469;28;20043;-69
2022/09/23 03:56:41;;;;;;;22.13;19.98;;;;;;;;;;10181693;28;20734;-70
2022/09/23 04:01:37;;;;;;;19.38;18.02;;;;;;;;;;10143332;28;20056;-70
2022/09/23 04:06:33;;;;;;;19.63;18.33;;;;;;;;;;10141316;28;20039;-70
2022/09/23 04:11:30;;;;;;;18.10;16.90;;;;;;;;;;10148478;28;20053;-70
2022/09/23 04:16:26;;;;;;;19.15;17.20;;;;;;;;;;10155743;28;20710;-70
2022/09/23 04:21:22;;;;;;;17.75;16.65;;;;;;;;;;10150522;28;20057;-70
2022/09/23 04:26:19;;;;;;;17.55;16.27;;;;;;;;;;10149654;28;20504;-70
2022/09/23 04:31:15;;;;;;;16.83;15.77;;;;;;;;;;10151237;28;20053;-70
2022/09/23 04:36:11;;;;;;;18.25;17.15;;;;;;;;;;10143994;28;20053;-71
2022/09/23 04:41:08;;;;;;;18.23;16.92;;;;;;;;;;10137364;28;20416;-70
2022/09/23 04:46:07;;;;;;;17.40;16.13;;;;;;;;;;10133339;28;20094;-70
2022/09/23 04:51:05;;;;;;;19.98;18.63;;;;;;;;;;10143997;28;20038;-70
2022/09/23 04:56:07;;;;;;;18.80;17.45;;;;;;;;;;10137191;28;20062;-70
2022/09/23 05:01:25;;;;;;;18.95;17.45;;;;;;;;;;10141543;28;20052;-70
2022/09/23 05:06:22;;;;;;;19.27;18.10;;;;;;;;;;10144421;28;20054;-70
2022/09/23 05:11:19;;;;;;;19.55;18.35;;;;;;;;;;10144566;28;20050;-70
2022/09/23 05:16:16;;;;;;;19.67;18.42;;;;;;;;;;10139005;28;20420;-70
2022/09/23 05:21:13;;;;;;;18.98;17.77;;;;;;;;;;10141612;28;20051;-70
2022/09/23 05:26:11;;;;;;;18.98;17.77;;;;;;;;;;10134984;28;20046;-70
2022/09/23 05:31:11;;;;;;;18.63;17.42;;;;;;;;;;10139027;28;20057;-70
2022/09/23 05:36:16;;;;;;;18.75;17.55;;;;;;;;;;10139837;28;20526;-70
2022/09/23 05:41:13;;;;;;;17.67;16.48;;;;;;;;;;10131197;28;20054;-70
2022/09/23 05:46:11;;;;;;;17.30;16.27;;;;;;;;;;10147645;28;20781;-70
2022/09/23 05:51:11;;;;;;;16.08;14.88;;;;;;;;;;10162787;28;20046;-70
2022/09/23 05:56:07;;;;;;;14.57;13.50;;;;;;;;;;10151787;28;20046;-70
2022/09/23 06:01:16;;;;;;;15.68;14.48;;;;;;;;;;10147592;28;20625;-70
2022/09/23 06:06:14;;;;;;;15.45;14.32;;;;;;;;;;10144040;28;20194;-70
2022/09/23 06:11:10;;;;;;;16.35;15.00;;;;;;;;;;10144613;28;20444;-71
2022/09/23 06:16:11;;;;;;;16.55;15.43;;;;;;;;;;10157457;28;20054;-71
2022/09/23 06:21:10;;;;;;;16.52;15.05;;;;;;;;;;10144836;28;20042;-70
2022/09/23 06:26:07;;;;;;;15.88;14.77;;;;;;;;;;10144694;28;20054;-70
2022/09/23 06:31:06;;;;;;;16.05;14.90;;;;;;;;;;10145351;28;20043;-70
2022/09/23 06:36:09;;;;;;;17.15;15.95;;;;;;;;;;10152126;28;20054;-70
2022/09/23 06:41:05;;;;;;;18.02;16.80;;;;;;;;;;10184318;28;20432;-70
2022/09/23 06:46:03;;;;;;;17.92;16.70;;;;;;;;;;10138857;28;20404;-70
2022/09/23 06:51:01;;;;;;;18.13;16.92;;;;;;;;;;10152642;28;20097;-70
2022/09/23 06:56:01;;;;;;;20.00;18.48;;;;;;;;;;10144829;28;20526;-70
2022/09/23 07:01:01;;;;;;;19.30;18.08;;;;;;;;;;10149311;28;20057;-70
2022/09/23 07:05:58;;;;;;;20.02;18.63;;;;;;;;;;10147405;28;20054;-70
2022/09/23 07:10:55;;;;;;;20.45;18.80;;;;;;;;;;10142239;28;20050;-70
2022/09/23 07:15:52;;;;;;;20.65;19.15;;;;;;;;;;10149921;28;20049;-70
2022/09/23 07:20:49;;;;;;;22.20;20.80;;;;;;;;;;10147352;28;20319;-71
2022/09/23 07:25:45;;;;;;;19.67;18.38;;;;;;;;;;10149929;28;20436;-70
2022/09/23 07:30:42;;;;;;;21.30;19.20;;;;;;;;;;10149842;28;20835;-70
2022/09/23 07:35:53;;;;;;;18.10;16.60;;;;;;;;;;10143790;28;20053;-71
2022/09/23 07:40:50;;;;;;;16.67;15.63;;;;;;;;;;10151652;28;20459;-70
2022/09/23 07:45:46;;;;;;;15.45;14.45;;;;;;;;;;10140116;28;20050;-71
2022/09/23 07:50:42;;;;;;;14.90;13.70;;;;;;;;;;10140395;28;20441;-70
2022/09/23 07:55:39;;;;;;;15.57;14.50;;;;;;;;;;10139476;28;20054;-70
2022/09/23 08:00:35;;;;;;;14.68;13.27;;;;;;;;;;10151807;28;20054;-72
2022/09/23 08:05:31;;;;;;;14.18;13.18;;;;;;;;;;10146768;28;20052;-69
2022/09/23 08:10:27;;;;;;;12.13;11.32;;;;;;;;;;10143808;28;20050;-70
2022/09/23 08:15:25;;;;;;;13.75;12.75;;;;;;;;;;10151083;28;20787;-69
2022/09/23 08:25:45;;;;;;;13.10;12.00;;;;;;;;;;10143935;28;20060;-69
2022/09/23 08:30:43;;;;;;;15.20;12.02;;;;;;;;;;10147863;28;20050;-68
2022/09/23 08:35:39;;;;;;;12.75;11.88;;;;;;;;;;10131275;28;20449;-68
2022/09/23 08:40:41;;;;;;;12.57;11.40;;;;;;;;;;10146174;28;20050;-69
2022/09/23 08:45:39;;;;;;;12.55;11.60;;;;;;;;;;10135241;28;20138;-68
2022/09/23 08:50:41;;;;;;;12.43;11.52;;;;;;;;;;10139037;28;20054;-68
2022/09/23 08:55:46;;;;;;;11.80;10.68;;;;;;;;;;10126990;28;20049;-68
2022/09/23 09:00:46;;;;;;;12.73;11.63;;;;;;;;;;10134710;28;20076;-69
2022/09/23 09:05:42;;;;;;;12.75;11.80;;;;;;;;;;10136970;28;20085;-68
2022/09/23 09:10:52;;;;;;;11.95;10.90;;;;;;;;;;10135178;28;20046;-69
2022/09/23 09:16:12;;;;;;;10.90;10.10;;;;;;;;;;10129094;28;21770;-69
2022/09/23 09:21:12;;;;;;;10.27;9.38;;;;;;;;;;10143730;28;20072;-69
2022/09/23 09:26:15;;;;;;;9.82;9.13;;;;;;;;;;10140212;28;20054;-69
2022/09/23 09:31:20;;;;;;;11.10;10.30;;;;;;;;;;10145241;28;20056;-69
2022/09/23 09:36:22;;;;;;;10.52;9.63;;;;;;;;;;10139517;28;20050;-69
2022/09/23 09:41:23;;;;;;;10.48;9.68;;;;;;;;;;10145805;28;20042;-69
2022/09/23 09:46:43;;;;;;;12.35;11.13;;;;;;;;;;10135591;28;20504;-69
2022/09/23 09:51:41;;;;;;;9.50;8.70;;;;;;;;;;10144548;28;20043;-69
2022/09/23 09:56:38;;;;;;;9.82;9.02;;;;;;;;;;10137776;28;20090;-70
2022/09/23 10:01:35;;;;;;;9.73;8.93;;;;;;;;;;10143465;28;20057;-70
2022/09/23 10:06:32;;;;;;;8.32;7.72;;;;;;;;;;10150947;28;20053;-70
2022/09/23 10:11:29;;;;;;;8.68;7.88;;;;;;;;;;10151897;28;20145;-70
2022/09/23 10:16:26;;;;;;;8.77;8.07;;;;;;;;;;10146105;28;20060;-69
2022/09/23 10:21:23;;;;;;;9.18;8.27;;;;;;;;;;10151495;28;20133;-69
2022/09/23 10:26:29;;;;;;;9.57;8.65;;;;;;;;;;10150570;28;20209;-70
2022/09/23 10:31:27;;;;;;;9.15;8.45;;;;;;;;;;10152922;28;20499;-69
2022/09/23 10:36:23;;;;;;;9.45;8.65;;;;;;;;;;10152166;28;20046;-69
2022/09/23 10:46:49;;;;;;;8.40;7.80;;;;;;;;;;10142437;28;20054;-69
2022/09/23 10:51:55;;;;;;;7.75;7.15;;;;;;;;;;10156537;28;20562;-70
2022/09/23 10:56:53;;;;;;;8.10;7.40;;;;;;;;;;10155283;28;20049;-68
2022/09/23 11:02:16;;;;;;;7.85;7.18;;;;;;;;;;10153774;28;20042;-69
2022/09/23 11:07:22;;;;;;;7.75;7.05;;;;;;;;;;10164195;28;20108;-70
2022/09/23 11:12:30;;;;;;;8.02;7.38;;;;;;;;;;10149448;28;20053;-70
2022/09/23 11:17:26;;;;;;;8.27;7.57;;;;;;;;;;10144662;28;20049;-69
2022/09/23 11:22:42;;;;;;;7.88;7.28;;;;;;;;;;10149388;28;20065;-69
2022/09/23 11:27:52;;;;;;;8.20;7.38;;;;;;;;;;10155014;28;20047;-69
2022/09/23 11:33:01;;;;;;;7.38;6.78;;;;;;;;;;10151020;28;20050;-69
2022/09/23 11:38:01;;;;;;;7.43;6.68;;;;;;;;;;10153254;28;20455;-69
2022/09/23 11:43:06;;;;;;;7.03;6.43;;;;;;;;;;10142832;28;20060;-70
2022/09/23 11:48:14;;;;;;;7.70;7.10;;;;;;;;;;10149119;28;20587;-69
2022/09/23 11:53:29;;;;;;;7.47;6.80;;;;;;;;;;10151523;28;20065;-69
2022/09/23 11:58:29;;;;;;;6.88;6.38;;;;;;;;;;10148752;28;20074;-68
2022/09/23 12:03:40;;;;;;;7.45;6.75;;;;;;;;;;10146702;28;20564;-69
2022/09/23 12:08:40;;;;;;;7.57;6.85;;;;;;;;;;10141031;28;20054;-69
2022/09/23 12:13:55;;;;;;;7.85;7.03;;;;;;;;;;10151525;28;20056;-69
2022/09/23 12:18:58;;;;;;;6.90;6.30;;;;;;;;;;10153140;28;20505;-69
2022/09/23 12:24:14;;;;;;;7.40;6.65;;;;;;;;;;10139918;28;20053;-69
2022/09/23 12:29:14;;;;;;;7.57;6.97;;;;;;;;;;10154967;28;20097;-69
2022/09/23 12:34:32;;;;;;;7.53;6.82;;;;;;;;;;10143535;28;20109;-70
2022/09/23 12:39:29;;;;;;;6.90;6.30;;;;;;;;;;10152933;28;20073;-69
2022/09/23 12:44:40;;;;;;;7.47;6.75;;;;;;;;;;10152885;28;20397;-69
2022/09/23 12:49:36;;;;;;;7.28;6.57;;;;;;;;;;10142454;28;20054;-71
2022/09/23 12:54:32;;;;;;;7.28;6.68;;;;;;;;;;10140983;28;20640;-72
2022/09/23 12:59:52;;;;;;;7.95;6.35;;;;;;;;;;10141232;28;20054;-72
2022/09/23 13:10:22;;;;;;;7.32;6.72;;;;;;;;;;10134355;28;20062;-72
2022/09/23 13:15:27;;;;;;;6.38;5.88;;;;;;;;;;10143164;28;20053;-71
2022/09/23 13:20:37;;;;;;;7.75;7.15;;;;;;;;;;10147650;28;20129;-71
2022/09/23 13:25:37;;;;;;;8.10;7.50;;;;;;;;;;10132666;28;20038;-71
2022/09/23 13:30:34;;;;;;;8.20;7.50;;;;;;;;;;10127261;28;20047;-71
2022/09/23 13:35:36;;;;;;;8.45;7.25;;;;;;;;;;10133865;28;20053;-71
2022/09/23 13:40:32;;;;;;;7.75;7.15;;;;;;;;;;10135754;28;20042;-71
2022/09/23 13:45:32;;;;;;;7.70;7.10;;;;;;;;;;10138655;28;20045;-71
2022/09/23 13:50:29;;;;;;;7.97;7.38;;;;;;;;;;10143197;28;20061;-71
2022/09/23 13:55:31;;;;;;;8.30;7.35;;;;;;;;;;10141562;28;20043;-69
2022/09/23 14:00:34;;;;;;;7.80;7.20;;;;;;;;;;10138544;28;20129;-71
2022/09/23 14:05:32;;;;;;;7.90;7.28;;;;;;;;;;10143785;28;20553;-71
2022/09/23 14:10:29;;;;;;;7.88;7.28;;;;;;;;;;10149991;28;20077;-70
2022/09/23 14:15:26;;;;;;;8.45;7.80;;;;;;;;;;10142233;28;20057;-71
2022/09/23 14:20:22;;;;;;;7.93;7.30;;;;;;;;;;10147848;28;20050;-71
2022/09/23 14:25:19;;;;;;;7.55;7.05;;;;;;;;;;10140241;28;20051;-71
2022/09/23 14:30:17;;;;;;;8.25;7.50;;;;;;;;;;10152849;28;20050;-71
2022/09/23 14:35:22;;;;;;;7.85;7.25;;;;;;;;;;10140774;28;20047;-71
2022/09/23 14:40:20;;;;;;;7.85;7.25;;;;;;;;;;10155289;28;20053;-71
2022/09/23 14:45:21;;;;;;;7.85;7.28;;;;;;;;;;10130377;28;20409;-71
2022/09/23 14:50:46;;;;;;;8.05;7.45;;;;;;;;;;10148415;28;20564;-71
2022/09/23 14:55:43;;;;;;;7.85;7.00;;;;;;;;;;10147837;28;20081;-71
2022/09/23 15:00:49;;;;;;;6.63;6.13;;;;;;;;;;10140322;28;20042;-71
2022/09/23 15:05:46;;;;;;;6.85;6.32;;;;;;;;;;10147716;28;20546;-71
2022/09/23 15:10:43;;;;;;;6.70;6.10;;;;;;;;;;10142746;28;20047;-70
2022/09/23 15:15:40;;;;;;;7.32;6.63;;;;;;;;;;10148732;28;20061;-71
2022/09/23 15:20:37;;;;;;;7.72;7.03;;;;;;;;;;10149134;28;20043;-71
2022/09/23 15:25:43;;;;;;;6.90;6.20;;;;;;;;;;10144722;28;20045;-71
2022/09/23 15:30:40;;;;;;;7.00;6.40;;;;;;;;;;10138638;28;20054;-71
2022/09/23 15:35:38;;;;;;;9.13;5.90;;;;;;;;;;10134649;28;20070;-71
2022/09/23 15:40:35;;;;;;;6.40;5.90;;;;;;;;;;10136833;28;20050;-71
2022/09/23 15:45:36;;;;;;;7.00;6.45;;;;;;;;;;10158120;28;20500;-70
2022/09/23 15:50:36;;;;;;;7.90;7.20;;;;;;;;;;10132942;28;20050;-68
2022/09/23 15:55:32;;;;;;;6.95;6.38;;;;;;;;;;10144713;28;20445;-68
2022/09/23 16:00:28;;;;;;;7.22;6.53;;;;;;;;;;10147348;28;20042;-69
2022/09/23 16:05:29;;;;;;;6.60;6.00;;;;;;;;;;10141439;28;20058;-69
2022/09/23 16:10:25;;;;;;;8.27;7.25;;;;;;;;;;10143884;28;20050;-69
2022/09/23 16:15:22;;;;;;;6.93;6.32;;;;;;;;;;10146109;28;20050;-69
2022/09/23 16:20:19;;;;;;;6.95;6.32;;;;;;;;;;10142952;28;20050;-68
2022/09/23 16:25:15;;;;;;;7.50;6.80;;;;;;;;;;10143701;28;20049;-69
2022/09/23 16:30:12;;;;;;;7.10;6.40;;;;;;;;;;10142433;28;20054;-69
2022/09/23 16:35:08;;;;;;;7.72;7.05;;;;;;;;;;10147885;28;20050;-69
2022/09/23 16:40:06;;;;;;;7.63;6.93;;;;;;;;;;10146962;28;20074;-69
2022/09/23 16:45:02;;;;;;;8.98;6.82;;;;;;;;;;10140629;28;20054;-70
2022/09/23 16:49:59;;;;;;;7.82;7.03;;;;;;;;;;10141500;28;20065;-68
2022/09/23 16:54:55;;;;;;;8.02;6.68;;;;;;;;;;10136877;28;20105;-69
2022/09/23 17:05:07;;;;;;;7.93;7.13;;;;;;;;;;10130739;28;20058;-69
2022/09/23 17:10:03;;;;;;;7.43;6.72;;;;;;;;;;10142860;28;20054;-69
2022/09/23 17:15:02;;;;;;;8.15;7.38;;;;;;;;;;10136480;28;20505;-71
2022/09/23 17:19:58;;;;;;;8.18;7.43;;;;;;;;;;10143678;28;20409;-72
2022/09/23 17:24:54;;;;;;;8.65;7.85;;;;;;;;;;10149126;28;20057;-71
2022/09/23 17:29:50;;;;;;;8.27;7.47;;;;;;;;;;10142329;28;20046;-72
2022/09/23 17:34:47;;;;;;;8.88;8.02;;;;;;;;;;10142426;28;20042;-71
2022/09/23 17:39:43;;;;;;;8.55;7.82;;;;;;;;;;10141468;28;20547;-72
2022/09/23 17:44:39;;;;;;;8.55;7.65;;;;;;;;;;10122393;28;20118;-72
2022/09/23 17:49:36;;;;;;;9.20;8.30;;;;;;;;;;10130946;28;20046;-71
2022/09/23 17:54:32;;;;;;;8.90;7.97;;;;;;;;;;10143343;28;20050;-71
2022/09/23 17:59:28;;;;;;;8.85;8.02;;;;;;;;;;10138973;28;20038;-72
2022/09/23 18:04:24;;;;;;;9.15;8.25;;;;;;;;;;10129742;28;20406;-72
2022/09/23 18:09:21;;;;;;;11.18;9.10;;;;;;;;;;10131552;28;20050;-71
2022/09/23 18:14:18;;;;;;;9.52;8.73;;;;;;;;;;10145057;28;20728;-71
2022/09/23 18:19:16;;;;;;;9.35;8.45;;;;;;;;;;10143822;28;20042;-70
2022/09/23 18:24:12;;;;;;;9.30;8.40;;;;;;;;;;10138460;28;20046;-70
2022/09/23 18:29:28;;;;;;;9.65;8.75;;;;;;;;;;10133561;28;20250;-71
2022/09/23 18:34:24;;;;;;;9.85;8.98;;;;;;;;;;10124469;28;20054;-71
2022/09/23 18:39:21;;;;;;;9.82;8.93;;;;;;;;;;10137609;28;20038;-71
2022/09/23 18:44:18;;;;;;;10.10;9.30;;;;;;;;;;10134893;28;20047;-71
2022/09/23 18:54:30;;;;;;;10.63;9.73;;;;;;;;;;10141971;28;20559;-71
2022/09/23 18:59:28;;;;;;;11.70;10.50;;;;;;;;;;10130604;28;20076;-72
2022/09/23 19:04:25;;;;;;;12.88;11.18;;;;;;;;;;10137638;28;20513;-71
2022/09/23 19:09:21;;;;;;;10.07;9.13;;;;;;;;;;10138306;28;20573;-71
2022/09/23 19:14:17;;;;;;;11.40;10.13;;;;;;;;;;10148142;28;20058;-71
2022/09/23 19:19:14;;;;;;;11.45;9.98;;;;;;;;;;10147517;28;20405;-71
2022/09/23 19:24:13;;;;;;;10.40;9.50;;;;;;;;;;10144617;28;20523;-71
2022/09/23 19:29:13;;;;;;;10.60;9.70;;;;;;;;;;10134490;28;20517;-71
2022/09/23 19:34:13;;;;;;;10.93;9.88;;;;;;;;;;10128567;28;20427;-71
2022/09/23 19:39:14;;;;;;;11.52;10.52;;;;;;;;;;10138235;28;20512;-68
2022/09/23 19:44:10;;;;;;;11.90;9.68;;;;;;;;;;10149926;28;20053;-71
2022/09/23 19:49:07;;;;;;;10.15;9.23;;;;;;;;;;10147074;28;20090;-71
2022/09/23 19:54:04;;;;;;;13.30;9.52;;;;;;;;;;10137485;28;20428;-71
2022/09/23 19:59:01;;;;;;;10.48;9.57;;;;;;;;;;10148647;28;20042;-71
2022/09/23 20:03:58;;;;;;;10.20;9.35;;;;;;;;;;10133522;28;20057;-71
2022/09/23 20:08:56;;;;;;;10.93;9.75;;;;;;;;;;10128155;28;20042;-71
2022/09/23 20:13:59;;;;;;;11.48;9.57;;;;;;;;;;10125781;28;20042;-71
2022/09/23 20:18:58;;;;;;;12.25;10.95;;;;;;;;;;10129764;28;20051;-71
2022/09/23 20:23:55;;;;;;;11.65;10.65;;;;;;;;;;10133387;28;20034;-71
2022/09/23 20:28:51;;;;;;;13.93;11.63;;;;;;;;;;10128690;28;20049;-71
2022/09/23 20:33:53;;;;;;;12.13;10.57;;;;;;;;;;10135320;28;20050;-71
2022/09/23 20:38:53;;;;;;;14.63;12.52;;;;;;;;;;10152949;28;20033;-71
2022/09/23 20:43:53;;;;;;;12.15;10.38;;;;;;;;;;10142354;28;20041;-71
2022/09/23 20:48:49;;;;;;;13.10;11.65;;;;;;;;;;10141621;28;20043;-71
2022/09/23 20:53:52;;;;;;;12.95;11.70;;;;;;;;;;10137684;28;20051;-71
2022/09/23 20:58:49;;;;;;;13.93;12.63;;;;;;;;;;10134081;28;20046;-72
2022/09/23 21:03:46;;;;;;;14.80;13.35;;;;;;;;;;10145459;28;20053;-71
2022/09/23 21:08:43;;;;;;;15.75;14.30;;;;;;;;;;10143074;28;20097;-71
2022/09/23 21:13:44;;;;;;;18.17;16.50;;;;;;;;;;10148774;28;20042;-71
2022/09/23 21:18:40;;;;;;;18.65;16.92;;;;;;;;;;10148798;28;20061;-70
2022/09/23 21:23:37;;;;;;;18.48;16.77;;;;;;;;;;10126656;28;20039;-70
2022/09/23 21:28:41;;;;;;;19.75;18.15;;;;;;;;;;10137692;28;20121;-71
2022/09/23 21:33:37;;;;;;;19.27;17.55;;;;;;;;;;10125995;28;20042;-71
2022/09/23 21:38:36;;;;;;;19.42;17.83;;;;;;;;;;10119516;28;20046;-70
2022/09/23 21:43:33;;;;;;;19.50;17.83;;;;;;;;;;10124796;28;20045;-70
2022/09/23 21:48:31;;;;;;;20.17;18.48;;;;;;;;;;10129078;28;20047;-70
2022/09/23 21:53:28;;;;;;;21.00;19.30;;;;;;;;;;10129069;28;20552;-71
2022/09/23 21:58:25;;;;;;;20.83;19.13;;;;;;;;;;10142851;28;20460;-71
2022/09/23 22:03:22;;;;;;;23.30;21.60;;;;;;;;;;10147499;28;20043;-71
2022/09/23 22:08:18;;;;;;;23.95;21.95;;;;;;;;;;10134226;28;20051;-69
2022/09/23 22:13:14;;;;;;;24.70;22.80;;;;;;;;;;10135633;28;20508;-68
2022/09/23 22:18:11;;;;;;;24.15;22.23;;;;;;;;;;10149025;28;20433;-68
2022/09/23 22:23:07;;;;;;;23.95;22.02;;;;;;;;;;10135946;28;20047;-68
2022/09/23 22:33:18;;;;;;;27.10;25.00;;;;;;;;;;10145446;28;20053;-68
2022/09/23 22:38:15;;;;;;;27.48;25.58;;;;;;;;;;10150023;28;20065;-67
2022/09/23 22:43:11;;;;;;;27.05;25.08;;;;;;;;;;10148092;28;20053;-68
2022/09/23 22:48:07;;;;;;;29.45;27.40;;;;;;;;;;10156543;28;20139;-68
2022/09/23 22:53:03;;;;;;;28.67;26.67;;;;;;;;;;10169955;28;20038;-68
2022/09/23 22:58:00;;;;;;;29.33;27.42;;;;;;;;;;10157760;28;20054;-68
2022/09/23 23:03:19;;;;;;;30.80;28.55;;;;;;;;;;10157615;28;20512;-68
2022/09/23 23:08:16;;;;;;;29.27;27.27;;;;;;;;;;10161734;28;20117;-68
2022/09/23 23:13:12;;;;;;;31.02;28.92;;;;;;;;;;10146411;28;20046;-69
2022/09/23 23:18:08;;;;;;;30.95;28.58;;;;;;;;;;10150800;28;20555;-69
2022/09/23 23:23:04;;;;;;;29.58;27.58;;;;;;;;;;10151835;28;20053;-69
2022/09/23 23:28:01;;;;;;;31.42;29.35;;;;;;;;;;10147253;28;20042;-68
2022/09/23 23:32:57;;;;;;;33.25;31.05;;;;;;;;;;10146814;28;20050;-68
2022/09/23 23:37:53;;;;;;;33.63;31.50;;;;;;;;;;10161785;28;20042;-69
2022/09/23 23:42:50;;;;;;;36.30;33.60;;;;;;;;;;10145201;28;20054;-68
2022/09/23 23:47:46;;;;;;;31.35;29.15;;;;;;;;;;10157278;28;20165;-68
2022/09/23 23:52:42;;;;;;;28.75;26.65;;;;;;;;;;10146243;28;20048;-68
2022/09/23 23:57:38;;;;;;;30.75;28.80;;;;;;;;;;10151913;28;20073;-68
